Terminal Aerodrome Forecast
Issued by NWS

Current Version | Previous Version | Text Only | Print | Product List | Glossary On
Versions: 1 2 3 4 5 6 7 8 9 10 11 12 13 14 15 16 17 18 19
000 FTUS41 KBOX 301140 TAFACK TAF KACK 301140Z 3012/3112 33010KT P6SM SKC FM301800 32008KT P6SM FEW250 FM310000 32007KT P6SM SCT040 FM310400 36006KT P6SM SCT030 FM310800 03005KT P6SM BKN030 FM311000 04005KT P6SM BKN040=

USA.gov is the U.S. government's official web portal to all federal, state and local government web resources and services.